Time;durP1;ratioP1;P1;durP2;ratioP2;P2;SDS_P1;SDS_P2;PMS_P1;PMS_P2;Temp;Humidity;BMP_temperature;BMP_pressure;BME280_temperature;BME280_humidity;BME280_pressure;Samples;Min_cycle;Max_cycle;Signal;HPM_P1;HPM_P2
2023/08/15 00:00:38;;;;;;;;;;;27.50;96.80;;;27.74;57.91;98534.00;4971214;28;122954;-78
2023/08/15 00:03:05;;;;;;;;;;;27.50;96.80;;;27.73;57.86;98527.53;4991600;28;115300;-78
2023/08/15 00:05:35;;;;;;;;;;;27.50;96.90;;;27.72;57.96;98525.13;4979320;28;114349;-78
2023/08/15 00:08:02;;;;;;;;;;;27.50;96.90;;;27.71;57.79;98517.84;4968099;28;126874;-78
2023/08/15 00:10:31;;;;;;;;;;;27.50;96.90;;;27.68;57.84;98511.00;4975315;28;123299;-78
2023/08/15 00:12:57;;;;;;;;;;;27.50;97.00;;;27.66;57.99;98510.63;4964113;28;113372;-78
2023/08/15 00:15:23;;;;;;;;;;;27.40;97.00;;;27.63;58.26;98511.50;4983070;28;113674;-78
2023/08/15 00:17:50;;;;;;;;;;;27.40;97.10;;;27.63;58.37;98514.34;4975614;28;124809;-79
2023/08/15 00:20:16;;;;;;;;;;;27.40;97.10;;;27.60;58.43;98506.69;4976788;28;124193;-79
2023/08/15 00:22:42;;;;;;;;;;;27.40;97.20;;;27.59;58.34;98504.28;4987315;28;114322;-78
2023/08/15 00:25:09;;;;;;;;;;;27.30;97.20;;;27.56;58.35;98516.50;4985016;28;114257;-79
2023/08/15 00:27:35;;;;;;;;;;;27.30;97.20;;;27.53;58.54;98513.31;4976037;28;123208;-79
2023/08/15 00:30:01;;;;;;;;;;;27.30;97.30;;;27.52;58.39;98510.91;4988120;28;124696;-79
2023/08/15 00:32:28;;;;;;;;;;;27.30;97.30;;;27.49;58.30;98508.94;4993776;28;114308;-78
2023/08/15 00:34:54;;;;;;;;;;;27.30;97.40;;;27.48;58.52;98510.16;4984750;28;113651;-79
2023/08/15 00:37:20;;;;;;;;;;;26.10;97.10;;;27.46;58.48;98504.16;4991100;28;125173;-79
2023/08/15 00:39:46;;;;;;;;;;;27.20;97.50;;;27.45;58.44;98499.69;5000913;28;125093;-79
2023/08/15 00:42:13;;;;;;;;;;;27.20;97.50;;;27.43;58.76;98497.28;4988831;28;114312;-79
2023/08/15 00:44:43;;;;;;;;;;;27.20;97.60;;;27.41;58.82;98499.75;4991543;28;113739;-79
2023/08/15 00:47:10;;;;;;;;;;;27.20;97.60;;;27.37;58.84;98496.16;4976493;28;124178;-79
2023/08/15 00:49:36;;;;;;;;;;;27.10;97.60;;;27.34;58.90;98493.41;4992616;28;123390;-79
2023/08/15 00:52:03;;;;;;;;;;;27.20;97.70;;;27.32;58.98;98493.84;4982613;28;115372;-79
2023/08/15 00:54:30;;;;;;;;;;;27.10;97.70;;;27.29;59.00;98509.69;4977228;28;115382;-79
2023/08/15 00:56:57;;;;;;;;;;;27.10;97.80;;;27.27;59.06;98498.00;4971551;28;124607;-79
2023/08/15 00:59:23;;;;;;;;;;;27.00;97.80;;;27.25;59.05;98497.63;4972343;28;124018;-78
2023/08/15 01:01:55;;;;;;;;;;;27.00;97.80;;;27.22;59.22;98503.34;4989978;28;114095;-78
2023/08/15 01:04:21;;;;;;;;;;;27.00;97.90;;;27.19;59.08;98504.19;4983356;28;113602;-79
2023/08/15 01:06:50;;;;;;;;;;;27.00;97.90;;;27.17;59.54;98492.50;4989796;28;123967;-78
2023/08/15 01:09:16;;;;;;;;;;;27.00;98.00;;;27.14;59.58;98505.47;4974718;28;121914;-79
2023/08/15 01:12:05;;;;;;;;;;;26.90;97.90;;;27.10;59.08;98491.34;4983841;28;114626;-79
2023/08/15 01:14:37;;;;;;;;;;;26.90;98.00;;;27.09;59.59;98488.97;4968027;28;112528;-79
2023/08/15 01:17:04;;;;;;;;;;;26.90;98.00;;;27.07;59.25;98491.41;4989034;28;124416;-79
2023/08/15 01:19:39;;;;;;;;;;;26.80;98.00;;;27.03;59.49;98493.53;4966929;28;124001;-79
2023/08/15 01:22:14;;;;;;;;;;;26.80;98.00;;;27.00;59.96;98491.53;4978957;28;113714;-78
2023/08/15 01:24:40;;;;;;;;;;;26.80;98.10;;;26.98;59.96;98496.84;4982767;28;114471;-78
2023/08/15 01:27:09;;;;;;;;;;;26.80;98.20;;;26.95;59.74;98492.03;4980989;28;123331;-78
2023/08/15 01:29:40;;;;;;;;;;;26.70;98.20;;;26.93;60.21;98489.63;4981574;28;124044;-78
2023/08/15 01:32:41;;;;;;;;;;;26.70;98.30;;;26.86;59.79;98493.38;4967997;28;114206;-79
2023/08/15 01:35:13;;;;;;;;;;;26.70;98.40;;;26.86;60.29;98490.53;4977234;28;112520;-79
2023/08/15 01:37:47;;;;;;;;;;;26.60;98.40;;;26.85;60.15;98480.44;4989821;28;123179;-79
2023/08/15 01:40:17;;;;;;;;;;;26.60;98.50;;;26.82;60.26;98474.84;4977473;28;124285;-79
2023/08/15 01:42:45;;;;;;;;;;;26.60;98.60;;;26.79;60.51;98473.66;4977059;28;116103;-78
2023/08/15 01:45:12;;;;;;;;;;;26.60;98.60;;;26.77;60.51;98476.13;4991174;28;113587;-78
2023/08/15 01:47:40;;;;;;;;;;;26.60;98.60;;;26.76;60.38;98491.53;4987984;28;124007;-79
2023/08/15 01:50:07;;;;;;;;;;;26.50;98.70;;;26.75;60.31;98491.94;4975977;28;124002;-78
2023/08/15 01:52:33;;;;;;;;;;;26.50;98.80;;;26.72;60.34;98490.78;4978520;28;113963;-78
2023/08/15 01:55:02;;;;;;;;;;;26.50;98.80;;;26.69;60.49;98494.47;4967412;28;114102;-79
2023/08/15 01:57:31;;;;;;;;;;;26.50;98.80;;;26.67;60.41;98492.06;4990243;28;124304;-78
2023/08/15 01:59:59;;;;;;;;;;;26.40;98.80;;;26.65;60.71;98483.19;4985343;28;123976;-78
2023/08/15 02:02:26;;;;;;;;;;;26.40;98.90;;;26.63;60.49;98487.69;4989616;28;114098;-78
2023/08/15 02:04:52;;;;;;;;;;;26.40;98.90;;;26.60;60.71;98486.50;4990787;28;113690;-79
2023/08/15 02:07:18;;;;;;;;;;;26.40;98.90;;;26.59;60.61;98479.22;4989516;28;124131;-78
2023/08/15 02:09:45;;;;;;;;;;;26.40;98.90;;;26.57;60.47;98476.03;4974688;28;123268;-78
2023/08/15 02:12:11;;;;;;;;;;;26.30;98.90;;;26.56;60.35;98476.47;4989560;28;114562;-79
2023/08/15 02:14:37;;;;;;;;;;;26.30;98.90;;;26.52;60.94;98475.69;4988059;28;114235;-79
2023/08/15 02:17:04;;;;;;;;;;;26.30;98.90;;;26.50;60.57;98475.31;4990071;28;123576;-79
2023/08/15 02:19:32;;;;;;;;;;;26.30;98.90;;;26.49;60.76;98485.03;4994037;28;125204;-79
2023/08/15 02:21:58;;;;;;;;;;;26.20;98.90;;;26.48;60.67;98494.75;4972364;28;115308;-79
2023/08/15 02:24:25;;;;;;;;;;;26.20;98.90;;;26.45;60.72;98485.88;4982060;28;114080;-79
2023/08/15 02:26:51;;;;;;;;;;;26.20;99.00;;;26.44;61.04;98481.47;4984882;28;125332;-77
2023/08/15 02:29:17;;;;;;;;;;;26.20;99.10;;;26.41;61.07;98479.47;4987174;28;123836;-78
2023/08/15 02:31:47;;;;;;;;;;;26.20;99.10;;;26.40;60.80;98480.69;4992037;28;114498;-77
2023/08/15 02:34:18;;;;;;;;;;;26.20;99.10;;;26.38;61.00;98473.84;4988588;28;115626;-78
2023/08/15 02:36:48;;;;;;;;;;;26.10;99.10;;;26.36;61.13;98465.00;4986947;28;123527;-78
2023/08/15 02:39:16;;;;;;;;;;;26.10;99.20;;;26.35;61.07;98481.16;4986411;28;123926;-78
2023/08/15 02:41:44;;;;;;;;;;;26.10;99.20;;;26.32;61.57;98479.19;4991426;28;115106;-78
2023/08/15 02:44:11;;;;;;;;;;;26.10;99.20;;;26.31;61.19;98474.78;4972881;28;114105;-78
2023/08/15 02:46:37;;;;;;;;;;;26.10;99.30;;;26.30;61.06;98478.81;4987907;28;124286;-78
2023/08/15 02:49:08;;;;;;;;;;;26.00;99.30;;;26.27;61.43;98476.84;4986562;28;123794;-78
2023/08/15 02:51:34;;;;;;;;;;;26.00;99.40;;;26.27;61.43;98474.00;4993963;28;114629;-78
2023/08/15 02:54:03;;;;;;;;;;;26.00;99.40;;;26.26;61.79;98472.41;4984264;28;113669;-78
2023/08/15 02:56:29;;;;;;;;;;;26.00;99.50;;;26.25;61.52;98470.00;4975904;28;124292;-78
2023/08/15 02:58:56;;;;;;;;;;;26.00;99.60;;;26.20;61.61;98479.78;4983473;28;125858;-78
2023/08/15 03:01:23;;;;;;;;;;;26.00;99.70;;;26.18;62.09;98473.75;4991884;28;114630;-78
2023/08/15 03:03:49;;;;;;;;;;;26.00;99.80;;;26.17;62.09;98474.97;4989776;28;113981;-78
2023/08/15 03:06:15;;;;;;;;;;;25.90;99.80;;;26.16;62.18;98457.16;4996448;28;124196;-78
2023/08/15 03:08:42;;;;;;;;;;;25.90;99.80;;;26.14;62.01;98468.13;4985998;28;122816;-78
2023/08/15 03:11:08;;;;;;;;;;;25.90;99.90;;;26.14;62.47;98464.47;4982638;28;114304;-78
2023/08/15 03:13:34;;;;;;;;;;;25.90;99.90;;;26.12;62.41;98473.41;4971003;28;113690;-78
2023/08/15 03:16:00;;;;;;;;;;;25.90;99.90;;;26.10;62.85;98475.06;4976951;28;124212;-78
2023/08/15 03:18:29;;;;;;;;;;;25.90;99.90;;;26.10;62.69;98480.72;4986822;28;124356;-78
2023/08/15 03:20:55;;;;;;;;;;;25.90;99.90;;;26.08;62.58;98477.53;4988043;28;116279;-78
2023/08/15 03:23:22;;;;;;;;;;;25.80;99.90;;;26.07;62.59;98475.94;4969696;28;114256;-79
2023/08/15 03:25:55;;;;;;;;;;;25.80;99.90;;;26.06;62.72;98474.31;4963380;28;124287;-78
2023/08/15 03:28:21;;;;;;;;;;;25.80;99.90;;;26.05;62.62;98478.38;4998323;28;124595;-77
2023/08/15 03:30:48;;;;;;;;;;;25.80;99.90;;;26.04;62.77;98485.28;4982776;28;115007;-79
2023/08/15 03:33:15;;;;;;;;;;;25.70;99.90;;;26.01;63.28;98481.25;4992652;28;113782;-79
2023/08/15 03:35:48;;;;;;;;;;;25.70;99.90;;;25.99;63.25;98495.84;4987140;28;124309;-78
2023/08/15 03:38:16;;;;;;;;;;;25.70;99.90;;;25.99;63.40;98492.19;4986051;28;124648;-78
2023/08/15 03:40:43;;;;;;;;;;;25.70;99.90;;;25.96;63.20;98493.84;4990663;28;113428;-78
2023/08/15 03:43:10;;;;;;;;;;;25.70;99.90;;;25.96;62.97;98499.50;5001480;28;114253;-77
2023/08/15 03:45:37;;;;;;;;;;;25.70;99.90;;;25.94;62.94;98510.44;4971450;28;123351;-78
2023/08/15 03:48:05;;;;;;;;;;;25.70;99.90;;;25.95;63.32;98499.91;4980719;28;123165;-77
2023/08/15 03:50:35;;;;;;;;;;;25.70;99.90;;;25.94;63.09;98501.16;4972169;28;113585;-78
2023/08/15 03:53:01;;;;;;;;;;;25.60;99.90;;;25.92;63.21;98504.41;4987469;28;113945;-77
2023/08/15 03:55:28;;;;;;;;;;;25.60;99.90;;;25.90;63.29;98506.06;4989141;28;124689;-77
2023/08/15 03:57:55;;;;;;;;;;;25.60;99.90;;;25.88;63.21;98505.69;4988097;28;123002;-78
2023/08/15 04:00:22;;;;;;;;;;;25.60;99.90;;;25.85;63.44;98510.16;4998329;28;113786;-78
2023/08/15 04:02:48;;;;;;;;;;;25.60;99.90;;;25.84;63.61;98508.53;4993325;28;113245;-78
2023/08/15 04:05:15;;;;;;;;;;;25.60;99.90;;;25.83;63.46;98517.44;4997373;28;123657;-78
2023/08/15 04:07:41;;;;;;;;;;;25.60;99.90;;;25.82;63.31;98507.34;4991018;28;124051;-79
2023/08/15 04:10:08;;;;;;;;;;;25.50;99.90;;;25.80;63.24;98502.13;4979636;28;113385;-79
2023/08/15 04:12:34;;;;;;;;;;;25.50;99.90;;;25.78;63.34;98511.00;4987435;28;114793;-79
2023/08/15 04:15:00;;;;;;;;;;;25.50;99.90;;;25.77;63.58;98511.44;4990397;28;123419;-78
2023/08/15 04:17:27;;;;;;;;;;;25.50;99.90;;;25.75;63.79;98528.03;4989052;28;124204;-78
2023/08/15 04:19:53;;;;;;;;;;;25.50;99.90;;;25.74;63.31;98527.25;4991604;28;113346;-79
2023/08/15 04:22:22;;;;;;;;;;;25.50;99.90;;;25.74;63.79;98529.28;4980933;28;112924;-78
2023/08/15 04:24:48;;;;;;;;;;;25.50;99.90;;;25.72;63.70;98524.03;4986461;28;124825;-79
2023/08/15 04:27:14;;;;;;;;;;;25.40;99.90;;;25.71;63.58;98533.75;4987662;28;123818;-79
2023/08/15 04:29:41;;;;;;;;;;;25.40;99.90;;;25.71;63.46;98539.41;4984973;28;114770;-79
2023/08/15 04:32:07;;;;;;;;;;;25.50;99.90;;;25.69;64.02;98541.84;4977433;28;112982;-79
2023/08/15 04:34:33;;;;;;;;;;;25.40;99.90;;;25.66;64.12;98558.88;4990607;28;124553;-79
2023/08/15 04:36:59;;;;;;;;;;;25.40;99.90;;;25.60;64.00;98558.50;5000313;28;123836;-79
2023/08/15 04:39:27;;;;;;;;;;;25.30;99.90;;;25.60;64.20;98569.81;4990565;28;114058;-79
2023/08/15 04:41:53;;;;;;;;;;;25.30;99.90;;;25.59;64.34;98565.41;4986760;28;114374;-79
2023/08/15 04:44:19;;;;;;;;;;;25.30;99.90;;;25.57;63.79;98568.63;4988977;28;124311;-79
2023/08/15 04:46:46;;;;;;;;;;;25.30;99.90;;;25.57;63.89;98573.50;4982422;28;123107;-79
2023/08/15 04:49:12;;;;;;;;;;;25.30;99.90;;;25.57;63.74;98579.16;4976481;28;113999;-79
2023/08/15 04:51:38;;;;;;;;;;;25.30;99.90;;;25.56;63.71;98584.00;4978966;28;114527;-79
2023/08/15 04:54:05;;;;;;;;;;;25.30;99.90;;;25.57;63.59;98579.94;4999714;28;122906;-79
2023/08/15 04:56:31;;;;;;;;;;;25.30;99.90;;;25.60;63.52;98578.31;4995464;28;123053;-79
2023/08/15 04:59:00;;;;;;;;;;;25.30;99.90;;;25.61;63.67;98573.47;4988388;28;115275;-79
2023/08/15 05:01:29;;;;;;;;;;;25.30;99.90;;;25.62;63.82;98581.53;4989640;28;114679;-79
2023/08/15 05:03:55;;;;;;;;;;;25.30;99.90;;;25.64;63.55;98575.47;4981576;28;124467;-79
2023/08/15 05:06:21;;;;;;;;;;;25.30;99.90;;;25.65;63.75;98580.69;4989740;28;124417;-79
2023/08/15 05:08:47;;;;;;;;;;;25.30;99.90;;;25.66;63.22;98581.53;4981812;28;114587;-79
2023/08/15 05:11:13;;;;;;;;;;;25.30;99.90;;;25.68;63.29;98579.06;4974641;28;113686;-79
2023/08/15 05:13:40;;;;;;;;;;;25.30;99.90;;;25.69;63.67;98583.50;4968127;28;123250;-79
2023/08/15 05:16:08;;;;;;;;;;;25.30;99.90;;;25.69;63.36;98580.69;4985945;28;125408;-78
2023/08/15 05:18:37;;;;;;;;;;;25.30;99.90;;;25.74;63.60;98585.88;4983987;28;113806;-77
2023/08/15 05:21:03;;;;;;;;;;;25.40;99.90;;;25.76;63.73;98584.25;4984537;28;113772;-78
2023/08/15 05:23:29;;;;;;;;;;;25.40;99.90;;;25.79;63.57;98585.41;4970124;28;124009;-78
2023/08/15 05:25:56;;;;;;;;;;;25.40;99.90;;;25.81;63.67;98591.44;4986853;28;123843;-77
2023/08/15 05:28:22;;;;;;;;;;;25.40;99.90;;;25.82;63.60;98587.41;4988145;28;113805;-78
2023/08/15 05:30:50;;;;;;;;;;;25.40;99.90;;;25.82;63.23;98595.91;4978878;28;113726;-78
2023/08/15 05:33:17;;;;;;;;;;;25.50;99.90;;;25.84;63.13;98587.81;4978950;28;122366;-78
2023/08/15 05:35:45;;;;;;;;;;;25.50;99.90;;;25.88;63.11;98588.59;4986804;28;123862;-78
2023/08/15 05:38:11;;;;;;;;;;;25.50;99.90;;;25.89;63.21;98587.34;4976397;28;114413;-79
2023/08/15 05:40:39;;;;;;;;;;;25.50;99.90;;;25.93;63.00;98587.31;4973516;28;113728;-78
2023/08/15 05:43:05;;;;;;;;;;;25.50;99.90;;;25.96;62.91;98590.09;4979580;28;123922;-78
2023/08/15 05:45:32;;;;;;;;;;;25.60;99.90;;;26.00;63.08;98596.50;4979147;28;123891;-78
2023/08/15 05:47:58;;;;;;;;;;;25.60;99.90;;;26.04;62.38;98590.84;4989744;28;117391;-78
2023/08/15 05:50:25;;;;;;;;;;;25.60;99.90;;;26.07;62.50;98594.84;4981197;28;114626;-78
2023/08/15 05:52:51;;;;;;;;;;;25.70;99.90;;;26.08;62.61;98588.75;4976872;28;124520;-78
2023/08/15 05:55:17;;;;;;;;;;;25.70;99.90;;;26.12;62.47;98605.72;4973869;28;123912;-78
2023/08/15 05:57:43;;;;;;;;;;;25.70;99.90;;;26.17;61.85;98605.25;4986510;28;115262;-78
2023/08/15 06:00:12;;;;;;;;;;;25.70;99.90;;;26.20;61.96;98598.75;4986960;28;113893;-79
2023/08/15 06:02:39;;;;;;;;;;;25.80;99.90;;;26.21;62.01;98612.47;4980436;28;125410;-78
2023/08/15 06:05:08;;;;;;;;;;;25.80;99.90;;;26.22;61.38;98627.41;4970866;28;123271;-80
2023/08/15 06:07:35;;;;;;;;;;;25.80;99.90;;;26.23;61.82;98623.38;4977657;28;114601;-80
2023/08/15 06:10:01;;;;;;;;;;;25.80;99.90;;;26.23;61.80;98627.00;4984566;28;114024;-80
2023/08/15 06:12:28;;;;;;;;;;;25.90;99.90;;;26.26;61.19;98644.41;4986515;28;124342;-81
2023/08/15 06:14:54;;;;;;;;;;;25.90;99.90;;;26.28;60.97;98642.75;4998665;28;123929;-80
2023/08/15 06:17:22;;;;;;;;;;;25.90;99.90;;;26.31;61.25;98641.09;4984006;28;114624;-83
2023/08/15 06:19:49;;;;;;;;;;;25.90;99.90;;;26.34;61.06;98638.22;4991913;28;113313;-79
2023/08/15 06:22:15;;;;;;;;;;;25.90;99.90;;;26.37;61.32;98645.88;4978667;28;125081;-80
2023/08/15 06:24:41;;;;;;;;;;;26.00;99.90;;;26.41;61.17;98643.81;4970382;28;123809;-80
2023/08/15 06:27:11;;;;;;;;;;;26.00;99.90;;;26.48;61.15;98656.28;4982045;28;115772;-80
2023/08/15 06:29:37;;;;;;;;;;;26.00;99.90;;;26.54;61.03;98648.94;4982138;28;113811;-80
2023/08/15 06:32:03;;;;;;;;;;;26.10;99.90;;;26.59;60.71;98637.94;4971078;28;124182;-79
2023/08/15 06:34:30;;;;;;;;;;;26.10;99.90;;;26.69;60.92;98646.72;4983979;28;123040;-81
2023/08/15 06:36:56;;;;;;;;;;;26.20;99.90;;;26.76;61.16;98655.94;5001628;28;116048;-80
2023/08/15 06:39:22;;;;;;;;;;;26.30;99.90;;;26.74;61.25;98647.06;4972058;28;116688;-80
2023/08/15 06:41:48;;;;;;;;;;;26.30;99.90;;;26.72;61.00;98649.50;4978340;28;124669;-82
2023/08/15 06:44:15;;;;;;;;;;;26.30;99.90;;;26.69;61.02;98653.19;4981168;28;123912;-80
2023/08/15 06:46:41;;;;;;;;;;;26.30;99.90;;;26.73;61.50;98665.28;4978819;28;114705;-81
2023/08/15 06:49:09;;;;;;;;;;;26.30;99.90;;;26.79;60.96;98674.94;4982934;28;113563;-81
2023/08/15 06:51:38;;;;;;;;;;;26.30;99.90;;;26.81;61.18;98671.66;4978617;28;124303;-81
2023/08/15 06:54:04;;;;;;;;;;;26.40;99.90;;;26.86;61.23;98665.50;4981519;28;123036;-82
2023/08/15 06:56:31;;;;;;;;;;;26.40;99.90;;;26.91;60.98;98669.91;4986256;28;114282;-82
2023/08/15 06:58:57;;;;;;;;;;;26.60;99.90;;;26.97;60.86;98673.88;4986992;28;113548;-82
2023/08/15 07:01:23;;;;;;;;;;;26.50;99.90;;;27.02;60.63;98677.03;4990122;28;124285;-82
2023/08/15 07:03:51;;;;;;;;;;;26.60;99.90;;;27.07;59.97;98678.59;4977009;28;124589;-82
2023/08/15 07:06:19;;;;;;;;;;;26.60;99.70;;;27.12;59.46;98675.28;4975399;28;116626;-82
2023/08/15 07:08:46;;;;;;;;;;;26.60;99.50;;;27.21;58.67;98683.28;4986495;28;113808;-82
2023/08/15 07:11:14;;;;;;;;;;;26.70;98.90;;;27.28;57.47;98672.63;4984310;28;124470;-82
2023/08/15 07:13:40;;;;;;;;;;;26.70;98.40;;;27.36;56.76;98675.38;4994273;28;124310;-82
2023/08/15 07:16:07;;;;;;;;;;;26.80;98.00;;;27.42;56.39;98671.59;4977852;28;113559;-81
2023/08/15 07:18:33;;;;;;;;;;;26.90;97.70;;;27.48;56.11;98680.44;4978972;28;114289;-82
2023/08/15 07:21:02;;;;;;;;;;;26.90;97.50;;;27.56;55.94;98675.44;4969699;28;124119;-82
2023/08/15 07:23:28;;;;;;;;;;;27.00;97.40;;;27.62;55.73;98685.06;4982265;28;124066;-80
2023/08/15 07:25:54;;;;;;;;;;;27.10;97.30;;;27.68;55.58;98694.72;4990292;28;115751;-82
2023/08/15 07:28:20;;;;;;;;;;;27.10;97.20;;;27.73;55.53;98680.84;4973545;28;114692;-81
2023/08/15 07:30:48;;;;;;;;;;;27.20;97.20;;;27.79;55.08;98684.00;4981155;28;124607;-83
2023/08/15 07:33:17;;;;;;;;;;;27.20;97.00;;;27.86;55.03;98685.91;4978358;28;125047;-83
2023/08/15 07:35:44;;;;;;;;;;;27.30;96.90;;;27.88;55.07;98692.78;4982085;28;114621;-82
2023/08/15 07:38:10;;;;;;;;;;;27.30;96.70;;;27.94;54.94;98676.84;4990647;28;113967;-82
2023/08/15 07:40:36;;;;;;;;;;;27.40;96.70;;;28.04;54.75;98680.72;4989627;28;124778;-82
2023/08/15 07:43:05;;;;;;;;;;;27.50;96.70;;;28.15;54.39;98689.84;4983785;28;123782;-82
2023/08/15 07:45:31;;;;;;;;;;;27.60;96.60;;;28.24;53.96;98682.78;4974785;28;114285;-82
2023/08/15 07:47:58;;;;;;;;;;;27.60;96.30;;;28.31;53.81;98674.94;4974717;28;112810;-82
2023/08/15 07:50:27;;;;;;;;;;;27.70;96.20;;;28.38;53.53;98674.00;4975117;28;124393;-82
2023/08/15 07:52:55;;;;;;;;;;;27.80;96.10;;;28.46;53.59;98664.13;4979289;28;123944;-82
2023/08/15 07:55:21;;;;;;;;;;;27.90;96.00;;;28.57;53.15;98675.28;4967490;28;114525;-82
2023/08/15 07:57:47;;;;;;;;;;;28.00;95.90;;;28.57;53.10;98663.91;4984593;28;112830;-81
2023/08/15 08:00:18;;;;;;;;;;;28.00;95.70;;;28.60;53.37;98658.13;4982216;28;124267;-81
2023/08/15 08:02:46;;;;;;;;;;;28.10;95.70;;;28.68;52.69;98669.38;4974214;28;124008;-82
2023/08/15 08:05:17;;;;;;;;;;;28.10;95.50;;;28.70;52.30;98670.53;4987959;28;116811;-81
2023/08/15 08:07:44;;;;;;;;;;;28.20;95.40;;;28.72;52.70;98679.44;4985956;28;113618;-81
2023/08/15 08:10:11;;;;;;;;;;;28.20;95.20;;;28.75;52.63;98674.91;4976810;28;124261;-81
2023/08/15 08:12:37;;;;;;;;;;;28.30;95.10;;;28.80;52.69;98668.69;4961303;28;122130;-81
2023/08/15 08:15:04;;;;;;;;;;;28.30;95.10;;;28.88;52.44;98680.72;4981805;28;115368;-81
2023/08/15 08:17:30;;;;;;;;;;;28.40;95.10;;;28.95;51.85;98681.38;4994749;28;114513;-81
2023/08/15 08:19:57;;;;;;;;;;;28.40;94.90;;;29.00;52.14;98675.16;4973532;28;123967;-81
2023/08/15 08:22:23;;;;;;;;;;;28.50;94.80;;;29.04;51.35;98658.84;4986010;28;123087;-81
2023/08/15 08:24:53;;;;;;;;;;;28.50;94.60;;;29.10;51.33;98667.66;4981476;28;114500;-81
2023/08/15 08:27:19;;;;;;;;;;;28.60;94.50;;;29.18;51.29;98665.47;4987114;28;114047;-80
2023/08/15 08:29:45;;;;;;;;;;;28.60;94.60;;;29.24;50.88;98660.84;4987779;28;125141;-81
2023/08/15 08:32:11;;;;;;;;;;;28.70;94.40;;;29.30;50.75;98664.75;4984827;28;123831;-81
2023/08/15 08:34:38;;;;;;;;;;;28.70;94.30;;;29.32;50.65;98662.28;4976282;28;115234;-81
2023/08/15 08:37:05;;;;;;;;;;;28.70;94.10;;;29.30;50.55;98659.06;4985905;28;114630;-81
2023/08/15 08:39:31;;;;;;;;;;;28.70;93.90;;;29.26;50.32;98658.34;4989609;28;124855;-81
2023/08/15 08:41:58;;;;;;;;;;;28.70;93.90;;;29.25;50.68;98668.91;4987459;28;123986;-81
2023/08/15 08:44:25;;;;;;;;;;;28.80;93.90;;;29.29;50.22;98671.69;4982969;28;114651;-81
2023/08/15 08:46:51;;;;;;;;;;;28.80;93.70;;;29.31;50.48;98674.09;4991671;28;113471;-81
2023/08/15 08:49:20;;;;;;;;;;;28.90;93.60;;;29.34;50.08;98676.88;4990427;28;123526;-82
2023/08/15 08:51:48;;;;;;;;;;;28.90;93.60;;;29.39;50.46;98673.50;4999541;28;124003;-82
2023/08/15 08:54:19;;;;;;;;;;;28.90;93.60;;;29.45;49.83;98670.91;4987039;28;114966;-82
2023/08/15 08:56:48;;;;;;;;;;;28.90;93.50;;;29.48;50.21;98670.81;4990875;28;112876;-81
2023/08/15 08:59:15;;;;;;;;;;;29.00;93.60;;;29.53;50.29;98672.34;4946803;28;124559;-82
2023/08/15 09:01:42;;;;;;;;;;;29.00;93.50;;;29.56;50.34;98665.75;4989162;28;123447;-82
2023/08/15 09:04:08;;;;;;;;;;;29.00;93.50;;;29.58;50.49;98676.69;4991457;28;115783;-83
2023/08/15 09:06:35;;;;;;;;;;;29.10;93.60;;;29.60;50.61;98669.31;4992290;28;114635;-83
2023/08/15 09:09:01;;;;;;;;;;;29.10;93.60;;;29.61;51.01;98672.97;4993109;28;124302;-82
2023/08/15 09:11:34;;;;;;;;;;;29.10;93.70;;;29.62;50.80;98674.56;4996896;28;124336;-82
2023/08/15 09:14:06;;;;;;;;;;;29.10;93.80;;;29.65;51.20;98680.19;4979287;28;114518;-82
2023/08/15 09:16:33;;;;;;;;;;;29.20;93.90;;;29.69;50.94;98672.38;4982122;28;113785;-83
2023/08/15 09:19:01;;;;;;;;;;;29.20;93.80;;;29.75;50.82;98677.53;4969781;28;124029;-84
2023/08/15 09:21:27;;;;;;;;;;;29.30;93.90;;;29.83;50.86;98678.94;4980372;28;122943;-86
2023/08/15 09:24:03;;;;;;;;;;;29.30;93.90;;;29.88;50.07;98682.06;4978120;28;114453;-85
2023/08/15 09:26:34;;;;;;;;;;;29.50;93.70;;;29.94;49.19;98683.13;4983014;28;113704;-85
2023/08/15 09:29:03;;;;;;;;;;;29.40;92.90;;;29.99;48.88;98687.47;4992340;28;123983;-88
2023/08/15 09:31:31;;;;;;;;;;;29.50;92.60;;;30.04;48.04;98683.28;4987133;28;123595;-83
2023/08/15 09:33:57;;;;;;;;;;;29.60;92.20;;;30.07;47.34;98688.09;4987790;28;114984;-81
2023/08/15 09:36:24;;;;;;;;;;;29.60;91.80;;;30.10;44.21;98678.66;4982124;28;113325;-80
2023/08/15 09:38:51;;;;;;;;;;;29.70;90.10;;;30.11;42.59;98666.00;4970590;28;125032;-80
2023/08/15 09:41:20;;;;;;;;;;;29.70;87.80;;;30.11;41.04;98689.59;4981025;28;124379;-80
2023/08/15 09:43:53;;;;;;;;;;;29.70;84.80;;;30.12;40.27;98681.84;4985348;28;119457;-82
2023/08/15 09:46:24;;;;;;;;;;;29.70;82.90;;;30.11;40.05;98677.38;4977479;28;119484;-81
2023/08/15 09:48:51;;;;;;;;;;;29.70;81.90;;;30.12;38.77;98684.72;4982404;28;122847;-81
2023/08/15 09:51:20;;;;;;;;;;;29.70;79.60;;;30.11;37.88;98677.38;4977568;28;124272;-79
2023/08/15 09:53:47;;;;;;;;;;;29.70;77.90;;;30.10;37.81;98681.50;4976413;28;119781;-81
2023/08/15 09:56:17;;;;;;;;;;;29.70;77.60;;;30.11;36.71;98663.13;4962287;28;118702;-81
2023/08/15 09:58:44;;;;;;;;;;;29.70;75.20;;;30.09;36.68;98666.47;4978748;28;124851;-81
2023/08/15 10:01:10;;;;;;;;;;;29.70;74.00;;;30.10;36.33;98670.09;4976991;28;123477;-81
2023/08/15 10:03:41;;;;;;;;;;;29.70;73.70;;;30.11;36.78;98668.84;4970660;28;120007;-81
2023/08/15 10:06:08;;;;;;;;;;;29.70;73.50;;;30.12;36.42;98665.56;4980785;28;118197;-81
2023/08/15 10:08:39;;;;;;;;;;;29.70;73.40;;;30.15;37.19;98683.81;4992071;28;124329;-81
2023/08/15 10:11:09;;;;;;;;;;;29.80;74.00;;;30.16;36.76;98689.03;4966881;28;124010;-81
2023/08/15 10:13:38;;;;;;;;;;;29.80;73.80;;;30.20;36.99;98688.97;4972838;28;119786;-82
2023/08/15 10:16:14;;;;;;;;;;;29.80;73.60;;;30.21;37.28;98692.59;4976877;28;118774;-80
2023/08/15 10:19:21;;;;;;;;;;;29.80;73.70;;;30.18;37.18;98694.31;4965000;28;123878;-80
2023/08/15 10:21:52;;;;;;;;;;;29.90;73.50;;;30.21;37.38;98693.41;4976091;28;123504;-80
2023/08/15 10:24:18;;;;;;;;;;;29.90;73.40;;;30.23;37.15;98690.94;4998115;28;119294;-80
2023/08/15 10:26:45;;;;;;;;;;;29.90;73.10;;;30.23;37.64;98698.69;4982948;28;118942;-80
2023/08/15 10:29:12;;;;;;;;;;;29.90;73.40;;;30.25;37.37;98693.31;4986690;28;124167;-80
2023/08/15 10:31:42;;;;;;;;;;;29.90;73.40;;;30.28;37.18;98700.97;4983732;28;124308;-81
2023/08/15 10:34:10;;;;;;;;;;;29.90;73.70;;;30.29;37.49;98706.25;4980752;28;119199;-81
2023/08/15 10:36:40;;;;;;;;;;;29.90;73.00;;;30.32;37.35;98705.34;4974534;28;118789;-81
2023/08/15 10:39:09;;;;;;;;;;;29.90;73.40;;;30.38;36.85;98714.13;4985709;28;124200;-81
2023/08/15 10:41:38;;;;;;;;;;;30.00;72.60;;;30.39;36.49;98701.50;4984127;28;124099;-80
2023/08/15 10:44:06;;;;;;;;;;;30.00;72.60;;;30.41;36.58;98706.75;4984457;28;119870;-80
2023/08/15 10:46:34;;;;;;;;;;;30.00;72.50;;;30.42;36.48;98717.72;4982164;28;119434;-79
2023/08/15 10:49:10;;;;;;;;;;;30.00;72.30;;;30.48;36.85;98712.25;4976347;28;124194;-79
2023/08/15 10:51:41;;;;;;;;;;;30.10;72.80;;;30.50;35.82;98718.31;4961828;28;123023;-79
2023/08/15 10:54:11;;;;;;;;;;;30.10;70.30;;;30.53;35.51;98703.94;4972472;28;120323;-79
2023/08/15 10:56:39;;;;;;;;;;;30.10;69.70;;;30.57;34.11;98710.38;4979947;28;118772;-80
2023/08/15 10:59:11;;;;;;;;;;;30.20;67.80;;;30.59;34.16;98701.34;4976005;28;123870;-80
2023/08/15 11:01:40;;;;;;;;;;;30.20;67.20;;;30.63;34.47;98716.31;4992611;28;123378;-80
2023/08/15 11:04:10;;;;;;;;;;;30.20;67.20;;;30.68;33.00;98714.94;4970078;28;119287;-80
2023/08/15 11:06:46;;;;;;;;;;;30.30;64.70;;;30.66;33.02;98723.16;4974606;28;118867;-80
2023/08/15 11:09:12;;;;;;;;;;;30.30;64.00;;;30.65;33.05;98716.63;4967833;28;123763;-80
2023/08/15 11:11:39;;;;;;;;;;;30.30;64.20;;;30.62;33.08;98711.84;4966552;28;124190;-81